Time;durP1;ratioP1;P1;durP2;ratioP2;P2;SDS_P1;SDS_P2;PMS_P1;PMS_P2;Temp;Humidity;BMP_temperature;BMP_pressure;BME280_temperature;BME280_humidity;BME280_pressure;Samples;Min_cycle;Max_cycle;Signal;HPM_P1;HPM_P2
2021/08/28 00:00:53;;;;;;;6.03;3.60;;;;;;;;;;2083066;28;20065;-65
2021/08/28 00:02:12;;;;;;;3.97;3.53;;;;;;;;;;2081333;28;20021;-65
2021/08/28 00:03:31;;;;;;;4.20;3.28;;;;;;;;;;2079473;28;20519;-65
2021/08/28 00:04:51;;;;;;;4.07;3.53;;;;;;;;;;2080478;28;20025;-65
2021/08/28 00:06:09;;;;;;;7.28;3.40;;;;;;;;;;2082219;28;20025;-66
2021/08/28 00:07:28;;;;;;;6.90;3.60;;;;;;;;;;2080633;28;20057;-65
2021/08/28 00:08:47;;;;;;;5.38;3.47;;;;;;;;;;2083651;28;20029;-65
2021/08/28 00:10:06;;;;;;;4.72;3.22;;;;;;;;;;2082004;28;20029;-64
2021/08/28 00:11:25;;;;;;;4.85;3.20;;;;;;;;;;2077421;28;20026;-65
2021/08/28 00:12:44;;;;;;;4.28;3.47;;;;;;;;;;2077193;28;20228;-65
2021/08/28 00:14:03;;;;;;;3.63;3.33;;;;;;;;;;2077721;28;20108;-65
2021/08/28 00:15:22;;;;;;;3.60;3.30;;;;;;;;;;2081823;28;20049;-65
2021/08/28 00:16:41;;;;;;;4.50;4.05;;;;;;;;;;2077998;28;20029;-65
2021/08/28 00:18:00;;;;;;;4.72;3.80;;;;;;;;;;2078628;28;20128;-65
2021/08/28 00:19:19;;;;;;;5.22;3.78;;;;;;;;;;2079745;28;20427;-65
2021/08/28 00:20:38;;;;;;;4.53;3.92;;;;;;;;;;2080184;28;20120;-65
2021/08/28 00:21:57;;;;;;;3.60;3.30;;;;;;;;;;2078538;28;20022;-67
2021/08/28 00:23:16;;;;;;;4.97;3.38;;;;;;;;;;2073874;28;20022;-65
2021/08/28 00:24:35;;;;;;;7.47;3.72;;;;;;;;;;2080897;28;20030;-65
2021/08/28 00:25:54;;;;;;;4.50;3.38;;;;;;;;;;2084916;28;20048;-65
2021/08/28 00:27:12;;;;;;;4.20;3.65;;;;;;;;;;2078203;28;20522;-65
2021/08/28 00:28:31;;;;;;;8.65;3.83;;;;;;;;;;2077418;28;20442;-65
2021/08/28 00:29:50;;;;;;;4.80;3.38;;;;;;;;;;2082191;28;20029;-65
2021/08/28 00:31:09;;;;;;;5.43;3.60;;;;;;;;;;2080727;28;20029;-65
2021/08/28 00:32:28;;;;;;;4.45;3.72;;;;;;;;;;2074628;28;20018;-65
2021/08/28 00:33:47;;;;;;;5.90;3.83;;;;;;;;;;2076369;28;20022;-65
2021/08/28 00:35:07;;;;;;;5.35;3.47;;;;;;;;;;2080853;28;20034;-65
2021/08/28 00:36:26;;;;;;;6.57;3.70;;;;;;;;;;2081947;28;20444;-65
2021/08/28 00:37:45;;;;;;;6.97;3.55;;;;;;;;;;2081622;28;20033;-65
2021/08/28 00:39:04;;;;;;;6.18;3.45;;;;;;;;;;2081421;28;20026;-65
2021/08/28 00:40:23;;;;;;;10.75;3.65;;;;;;;;;;2078313;28;20026;-65
2021/08/28 00:41:42;;;;;;;3.85;3.35;;;;;;;;;;2080659;28;20017;-65
2021/08/28 00:43:01;;;;;;;6.15;3.80;;;;;;;;;;2078354;28;20033;-65
2021/08/28 00:44:20;;;;;;;4.13;3.35;;;;;;;;;;2079221;28;20426;-65
2021/08/28 00:45:39;;;;;;;5.78;3.88;;;;;;;;;;2079982;28;20464;-66
2021/08/28 00:46:57;;;;;;;4.10;3.50;;;;;;;;;;2076435;28;20037;-65
2021/08/28 00:48:16;;;;;;;4.03;3.63;;;;;;;;;;2084263;28;20492;-65
2021/08/28 00:49:35;;;;;;;6.20;4.05;;;;;;;;;;2076422;28;20029;-65
2021/08/28 00:50:54;;;;;;;8.57;3.45;;;;;;;;;;2079906;28;20033;-65
2021/08/28 00:52:13;;;;;;;7.32;3.30;;;;;;;;;;2080187;28;20052;-65
2021/08/28 00:53:33;;;;;;;6.13;3.50;;;;;;;;;;2079002;28;20502;-65
2021/08/28 00:54:51;;;;;;;8.43;3.58;;;;;;;;;;2081725;28;20488;-66
2021/08/28 00:56:10;;;;;;;5.38;3.55;;;;;;;;;;2080956;28;20033;-65
2021/08/28 00:57:29;;;;;;;6.60;3.70;;;;;;;;;;2079825;28;20046;-65
2021/08/28 00:58:48;;;;;;;5.70;3.45;;;;;;;;;;2082999;28;20033;-65
2021/08/28 01:00:07;;;;;;;3.65;3.25;;;;;;;;;;2078943;28;20487;-65
2021/08/28 01:01:29;;;;;;;3.85;3.45;;;;;;;;;;2078670;28;20030;-65
2021/08/28 01:02:49;;;;;;;3.97;3.67;;;;;;;;;;2080646;28;20030;-65
2021/08/28 01:04:15;;;;;;;6.55;3.50;;;;;;;;;;2078927;28;20033;-66
2021/08/28 01:05:40;;;;;;;3.72;3.40;;;;;;;;;;2081051;28;20026;-65
2021/08/28 01:07:07;;;;;;;8.65;3.90;;;;;;;;;;2086160;28;20506;-65
2021/08/28 01:08:30;;;;;;;4.13;3.45;;;;;;;;;;2082174;28;20476;-65
2021/08/28 01:09:53;;;;;;;4.60;4.20;;;;;;;;;;2075013;28;20026;-65
2021/08/28 01:11:23;;;;;;;4.50;3.72;;;;;;;;;;2080076;28;20038;-65
2021/08/28 01:12:43;;;;;;;5.30;3.58;;;;;;;;;;2079502;28;20100;-65
2021/08/28 01:14:08;;;;;;;5.82;3.67;;;;;;;;;;2080937;28;20038;-65
2021/08/28 01:15:27;;;;;;;5.57;3.50;;;;;;;;;;2078172;28;20030;-65
2021/08/28 01:16:47;;;;;;;7.55;3.35;;;;;;;;;;2081130;28;20033;-65
2021/08/28 01:18:08;;;;;;;3.50;3.22;;;;;;;;;;2076561;28;20034;-65
2021/08/28 01:19:37;;;;;;;4.15;3.85;;;;;;;;;;2080048;28;20137;-65
2021/08/28 01:21:06;;;;;;;5.18;4.07;;;;;;;;;;2081401;28;20026;-65
2021/08/28 01:22:26;;;;;;;4.65;3.75;;;;;;;;;;2079847;28;20018;-66
2021/08/28 01:23:47;;;;;;;4.55;3.65;;;;;;;;;;2079580;28;20049;-65
2021/08/28 01:25:06;;;;;;;4.07;3.42;;;;;;;;;;2079499;28;20026;-65
2021/08/28 01:26:27;;;;;;;3.95;3.55;;;;;;;;;;2079574;28;20029;-65
2021/08/28 01:27:51;;;;;;;4.80;3.80;;;;;;;;;;2080991;28;20033;-65
2021/08/28 01:29:27;;;;;;;5.75;3.40;;;;;;;;;;2081372;28;20514;-65
2021/08/28 01:30:46;;;;;;;9.27;3.95;;;;;;;;;;2079956;28;20504;-65
2021/08/28 01:32:06;;;;;;;14.15;3.90;;;;;;;;;;2076897;28;20026;-65
2021/08/28 01:33:26;;;;;;;7.10;3.92;;;;;;;;;;2074742;28;20026;-65
2021/08/28 01:34:45;;;;;;;6.20;4.30;;;;;;;;;;2079509;28;20121;-65
2021/08/28 01:36:04;;;;;;;7.47;4.20;;;;;;;;;;2079485;28;20033;-65
2021/08/28 01:37:24;;;;;;;5.10;3.80;;;;;;;;;;2078803;28;20076;-65
2021/08/28 01:38:43;;;;;;;4.45;3.83;;;;;;;;;;2082270;28;20383;-65
2021/08/28 01:40:03;;;;;;;4.35;3.92;;;;;;;;;;2076407;28;20061;-65
2021/08/28 01:41:22;;;;;;;3.92;3.42;;;;;;;;;;2077513;28;20030;-65
2021/08/28 01:42:42;;;;;;;3.60;3.15;;;;;;;;;;2076164;28;20053;-65
2021/08/28 01:44:01;;;;;;;3.80;3.42;;;;;;;;;;2081492;28;20022;-65
2021/08/28 01:45:21;;;;;;;8.40;3.60;;;;;;;;;;2084625;28;20021;-65
2021/08/28 01:46:40;;;;;;;5.25;3.50;;;;;;;;;;2084486;28;20053;-65
2021/08/28 01:47:59;;;;;;;5.57;3.75;;;;;;;;;;2079711;28;20423;-65
2021/08/28 01:49:18;;;;;;;6.75;3.60;;;;;;;;;;2081646;28;20041;-65
2021/08/28 01:50:37;;;;;;;5.93;4.28;;;;;;;;;;2080342;28;20029;-65
2021/08/28 01:51:56;;;;;;;7.05;4.32;;;;;;;;;;2080689;28;20034;-65
2021/08/28 01:53:15;;;;;;;9.20;3.67;;;;;;;;;;2078539;28;20495;-65
2021/08/28 01:54:34;;;;;;;4.30;3.78;;;;;;;;;;2085599;28;20025;-65
2021/08/28 01:55:53;;;;;;;7.65;4.43;;;;;;;;;;2077144;28;20026;-65
2021/08/28 01:57:11;;;;;;;7.05;3.78;;;;;;;;;;2080682;28;20029;-65
2021/08/28 01:58:30;;;;;;;4.28;3.53;;;;;;;;;;2082334;28;20034;-65
2021/08/28 01:59:50;;;;;;;5.68;3.50;;;;;;;;;;2082016;28;20029;-65
2021/08/28 02:01:09;;;;;;;4.82;4.30;;;;;;;;;;2083245;28;20367;-65
2021/08/28 02:02:28;;;;;;;5.40;3.70;;;;;;;;;;2078887;28;20383;-65
2021/08/28 02:03:47;;;;;;;9.35;4.10;;;;;;;;;;2082239;28;20053;-65
2021/08/28 02:05:06;;;;;;;5.32;3.83;;;;;;;;;;2079109;28;20033;-65
2021/08/28 02:06:30;;;;;;;7.75;4.00;;;;;;;;;;2088473;28;20029;-66
2021/08/28 02:07:54;;;;;;;4.32;3.88;;;;;;;;;;2084238;28;20029;-65
2021/08/28 02:09:20;;;;;;;4.82;3.97;;;;;;;;;;2077783;28;20395;-65
2021/08/28 02:10:46;;;;;;;7.80;3.65;;;;;;;;;;2080501;28;20037;-65
2021/08/28 02:12:25;;;;;;;4.47;3.22;;;;;;;;;;2077071;28;20122;-65
2021/08/28 02:13:53;;;;;;;4.22;3.05;;;;;;;;;;2081467;28;20029;-65
2021/08/28 02:15:15;;;;;;;5.18;3.50;;;;;;;;;;2076936;28;20093;-65
2021/08/28 02:16:35;;;;;;;5.60;4.28;;;;;;;;;;2080424;28;20029;-65
2021/08/28 02:18:06;;;;;;;6.88;3.90;;;;;;;;;;2082668;28;20037;-66
2021/08/28 02:19:27;;;;;;;5.05;3.85;;;;;;;;;;2077503;28;20407;-65
2021/08/28 02:20:50;;;;;;;5.18;3.53;;;;;;;;;;2081621;28;20136;-65
2021/08/28 02:22:11;;;;;;;4.22;3.92;;;;;;;;;;2084639;28;20021;-65
2021/08/28 02:23:41;;;;;;;3.63;3.33;;;;;;;;;;2081254;28;20021;-65
2021/08/28 02:25:02;;;;;;;6.00;3.90;;;;;;;;;;2077244;28;20037;-65
2021/08/28 02:26:24;;;;;;;6.03;3.60;;;;;;;;;;2081254;28;20018;-65
2021/08/28 02:27:48;;;;;;;4.10;3.53;;;;;;;;;;2080462;28;20512;-65
2021/08/28 02:29:11;;;;;;;4.35;3.20;;;;;;;;;;2078419;28;20109;-65
2021/08/28 02:30:31;;;;;;;4.43;3.88;;;;;;;;;;2088876;28;20393;-65
2021/08/28 02:31:51;;;;;;;6.43;3.22;;;;;;;;;;2082510;28;20419;-65
2021/08/28 02:33:10;;;;;;;4.28;3.10;;;;;;;;;;2082851;28;20034;-65
2021/08/28 02:34:32;;;;;;;7.00;4.03;;;;;;;;;;2082157;28;20029;-65
2021/08/28 02:35:51;;;;;;;4.57;3.42;;;;;;;;;;2078038;28;20400;-65
2021/08/28 02:37:10;;;;;;;3.95;3.50;;;;;;;;;;2080833;28;20523;-65
2021/08/28 02:38:30;;;;;;;5.68;3.55;;;;;;;;;;2079491;28;20078;-65
2021/08/28 02:39:49;;;;;;;5.00;3.33;;;;;;;;;;2076487;28;20030;-65
2021/08/28 02:41:08;;;;;;;7.55;3.58;;;;;;;;;;2086464;28;20021;-65
2021/08/28 02:42:27;;;;;;;6.10;3.45;;;;;;;;;;2082061;28;20018;-65
2021/08/28 02:43:47;;;;;;;4.32;3.78;;;;;;;;;;2081729;28;20491;-65
2021/08/28 02:45:06;;;;;;;5.57;3.78;;;;;;;;;;2075388;28;20037;-65
2021/08/28 02:46:26;;;;;;;4.20;3.85;;;;;;;;;;2080231;28;20076;-65
2021/08/28 02:47:46;;;;;;;7.60;3.33;;;;;;;;;;2082748;28;20038;-66
2021/08/28 02:49:06;;;;;;;5.88;3.28;;;;;;;;;;2082372;28;20025;-65
2021/08/28 02:50:26;;;;;;;4.22;3.83;;;;;;;;;;2079402;28;20026;-66
2021/08/28 02:51:45;;;;;;;3.17;2.88;;;;;;;;;;2079258;28;20029;-66
2021/08/28 02:53:05;;;;;;;4.55;3.90;;;;;;;;;;2084197;28;20033;-65
2021/08/28 02:54:26;;;;;;;5.18;3.50;;;;;;;;;;2081675;28;20033;-65
2021/08/28 02:55:46;;;;;;;8.65;3.72;;;;;;;;;;2082694;28;20060;-65
2021/08/28 02:57:06;;;;;;;4.40;3.50;;;;;;;;;;2078298;28;20033;-65
2021/08/28 02:58:25;;;;;;;4.53;3.53;;;;;;;;;;2080146;28;20025;-65
2021/08/28 02:59:45;;;;;;;4.25;3.85;;;;;;;;;;2077818;28;20025;-65
2021/08/28 03:01:05;;;;;;;4.40;3.50;;;;;;;;;;2086399;28;20028;-65
2021/08/28 03:02:25;;;;;;;7.07;3.95;;;;;;;;;;2083203;28;20391;-65
2021/08/28 03:03:44;;;;;;;3.88;3.58;;;;;;;;;;2078056;28;20091;-65
2021/08/28 03:05:04;;;;;;;6.43;4.32;;;;;;;;;;2080910;28;20030;-64
2021/08/28 03:06:27;;;;;;;3.80;3.50;;;;;;;;;;2081832;28;20395;-65
2021/08/28 03:07:46;;;;;;;5.82;3.80;;;;;;;;;;2080995;28;20116;-64
2021/08/28 03:09:05;;;;;;;7.68;4.10;;;;;;;;;;2075072;28;20177;-65
2021/08/28 03:10:25;;;;;;;5.13;3.72;;;;;;;;;;2082302;28;20029;-64
2021/08/28 03:11:44;;;;;;;4.70;3.85;;;;;;;;;;2083811;28;20064;-65
2021/08/28 03:13:03;;;;;;;4.05;3.65;;;;;;;;;;2079012;28;20472;-65
2021/08/28 03:14:23;;;;;;;4.53;3.58;;;;;;;;;;2078200;28;20086;-65
2021/08/28 03:15:44;;;;;;;6.45;3.60;;;;;;;;;;2081328;28;20458;-65
2021/08/28 03:17:04;;;;;;;4.65;3.60;;;;;;;;;;2077156;28;20499;-65
2021/08/28 03:18:23;;;;;;;4.20;3.78;;;;;;;;;;2073014;28;20045;-65
2021/08/28 03:19:43;;;;;;;5.93;3.30;;;;;;;;;;2080646;28;20037;-65
2021/08/28 03:21:02;;;;;;;6.45;4.43;;;;;;;;;;2074591;28;20034;-64
2021/08/28 03:22:21;;;;;;;6.38;3.88;;;;;;;;;;2082609;28;20025;-65
2021/08/28 03:23:43;;;;;;;4.93;3.70;;;;;;;;;;2083707;28;20021;-65
2021/08/28 03:25:04;;;;;;;10.15;3.88;;;;;;;;;;2079205;28;20105;-64
2021/08/28 03:26:23;;;;;;;5.05;3.95;;;;;;;;;;2075642;28;20025;-64
2021/08/28 03:27:42;;;;;;;7.07;4.10;;;;;;;;;;2082238;28;20021;-65
2021/08/28 03:29:01;;;;;;;7.53;4.10;;;;;;;;;;2083275;28;20497;-63
2021/08/28 03:30:20;;;;;;;5.78;3.83;;;;;;;;;;2081705;28;20022;-64
2021/08/28 03:31:52;;;;;;;4.88;3.50;;;;;;;;;;2077110;28;20069;-64
2021/08/28 03:33:13;;;;;;;6.53;4.05;;;;;;;;;;2079086;28;20037;-65
2021/08/28 03:34:33;;;;;;;4.88;3.40;;;;;;;;;;2078581;28;20037;-64
2021/08/28 03:35:52;;;;;;;5.00;4.05;;;;;;;;;;2078269;28;20045;-65
2021/08/28 03:37:12;;;;;;;9.27;4.03;;;;;;;;;;2077584;28;20121;-65
2021/08/28 03:38:33;;;;;;;8.20;4.10;;;;;;;;;;2085244;28;20025;-65
2021/08/28 03:39:53;;;;;;;4.50;3.63;;;;;;;;;;2078863;28;20025;-65
2021/08/28 03:41:12;;;;;;;6.10;3.50;;;;;;;;;;2078327;28;20057;-65
2021/08/28 03:42:30;;;;;;;5.95;3.55;;;;;;;;;;2081701;28;20488;-64
2021/08/28 03:43:49;;;;;;;7.00;4.10;;;;;;;;;;2077262;28;20524;-64
2021/08/28 03:45:09;;;;;;;6.90;4.18;;;;;;;;;;2080025;28;20552;-65
2021/08/28 03:46:30;;;;;;;5.00;3.65;;;;;;;;;;2080371;28;20064;-64
2021/08/28 03:47:49;;;;;;;8.23;3.25;;;;;;;;;;2085709;28;20475;-65
2021/08/28 03:49:08;;;;;;;7.15;3.75;;;;;;;;;;2082364;28;20029;-64
2021/08/28 03:50:27;;;;;;;6.88;4.18;;;;;;;;;;2079628;28;20029;-65
2021/08/28 03:51:47;;;;;;;7.95;3.88;;;;;;;;;;2081787;28;20030;-64
2021/08/28 03:53:06;;;;;;;9.30;4.05;;;;;;;;;;2077730;28;20025;-64
2021/08/28 03:54:25;;;;;;;11.63;4.00;;;;;;;;;;2081448;28;20056;-64
2021/08/28 03:55:44;;;;;;;4.88;4.18;;;;;;;;;;2079402;28;20030;-65
2021/08/28 03:57:03;;;;;;;7.28;3.92;;;;;;;;;;2077915;28;20042;-64
2021/08/28 03:58:22;;;;;;;8.82;4.15;;;;;;;;;;2083441;28;20061;-64
2021/08/28 03:59:41;;;;;;;4.60;3.88;;;;;;;;;;2076079;28;20026;-65
2021/08/28 04:01:00;;;;;;;5.15;4.13;;;;;;;;;;2083145;28;20490;-65
2021/08/28 04:02:19;;;;;;;7.78;3.88;;;;;;;;;;2082810;28;20037;-65
2021/08/28 04:03:38;;;;;;;7.68;4.18;;;;;;;;;;2083634;28;20021;-64
2021/08/28 04:04:57;;;;;;;5.78;4.03;;;;;;;;;;2075293;28;20400;-65
2021/08/28 04:06:16;;;;;;;5.47;4.00;;;;;;;;;;2075705;28;20025;-64
2021/08/28 04:07:39;;;;;;;6.90;4.00;;;;;;;;;;2080830;28;20488;-64
2021/08/28 04:08:57;;;;;;;4.63;4.05;;;;;;;;;;2078589;28;20119;-65
2021/08/28 04:10:17;;;;;;;6.78;3.80;;;;;;;;;;2078552;28;20030;-64
2021/08/28 04:11:36;;;;;;;4.45;3.92;;;;;;;;;;2077634;28;20116;-65
2021/08/28 04:12:55;;;;;;;5.07;4.10;;;;;;;;;;2079878;28;20034;-65
2021/08/28 04:14:14;;;;;;;7.65;4.18;;;;;;;;;;2085161;28;20021;-64
2021/08/28 04:15:33;;;;;;;4.40;4.10;;;;;;;;;;2081569;28;20072;-65
2021/08/28 04:16:52;;;;;;;4.47;3.50;;;;;;;;;;2080000;28;20030;-65
2021/08/28 04:18:13;;;;;;;4.35;3.90;;;;;;;;;;2077889;28;20046;-65
2021/08/28 04:19:32;;;;;;;4.88;4.22;;;;;;;;;;2079468;28;20044;-64
2021/08/28 04:20:51;;;;;;;4.57;3.78;;;;;;;;;;2073975;28;20058;-64
2021/08/28 04:22:10;;;;;;;6.88;3.60;;;;;;;;;;2078928;28;20407;-64
2021/08/28 04:23:29;;;;;;;6.10;4.50;;;;;;;;;;2082856;28;20104;-65
2021/08/28 04:24:48;;;;;;;4.72;4.22;;;;;;;;;;2081005;28;20013;-65
2021/08/28 04:26:07;;;;;;;4.95;4.20;;;;;;;;;;2083337;28;20696;-65
2021/08/28 04:27:26;;;;;;;6.88;4.35;;;;;;;;;;2083234;28;20049;-65
2021/08/28 04:28:45;;;;;;;4.70;4.30;;;;;;;;;;2078570;28;20037;-65
2021/08/28 04:30:05;;;;;;;7.43;4.28;;;;;;;;;;2075625;28;20104;-65
2021/08/28 04:31:24;;;;;;;7.70;4.45;;;;;;;;;;2081432;28;20547;-65
2021/08/28 04:32:43;;;;;;;5.82;4.00;;;;;;;;;;2076228;28;20368;-65
2021/08/28 04:34:02;;;;;;;5.35;3.83;;;;;;;;;;2081027;28;20030;-65
2021/08/28 04:35:21;;;;;;;8.30;4.68;;;;;;;;;;2081403;28;20423;-65
2021/08/28 04:36:41;;;;;;;6.43;4.25;;;;;;;;;;2075800;28;20037;-65
2021/08/28 04:38:00;;;;;;;5.57;4.93;;;;;;;;;;2081374;28;20029;-65
2021/08/28 04:39:20;;;;;;;5.43;4.03;;;;;;;;;;2081478;28;20407;-65
2021/08/28 04:40:39;;;;;;;4.28;3.88;;;;;;;;;;2081209;28;20021;-65
2021/08/28 04:41:58;;;;;;;4.30;3.90;;;;;;;;;;2078442;28;20112;-64
2021/08/28 04:43:17;;;;;;;4.47;4.05;;;;;;;;;;2081877;28;20034;-65
2021/08/28 04:44:36;;;;;;;11.68;4.75;;;;;;;;;;2082557;28;20033;-66
2021/08/28 04:45:55;;;;;;;4.80;3.92;;;;;;;;;;2079562;28;20033;-65
2021/08/28 04:47:13;;;;;;;6.80;4.03;;;;;;;;;;2080087;28;20052;-65
2021/08/28 04:48:32;;;;;;;7.60;3.92;;;;;;;;;;2079812;28;20029;-65
2021/08/28 04:49:52;;;;;;;6.97;3.78;;;;;;;;;;2078832;28;20045;-65
2021/08/28 04:51:11;;;;;;;7.57;4.50;;;;;;;;;;2081216;28;20034;-64
2021/08/28 04:52:29;;;;;;;5.75;4.00;;;;;;;;;;2078792;28;20581;-65
2021/08/28 04:53:48;;;;;;;5.00;4.47;;;;;;;;;;2073732;28;20030;-65
2021/08/28 04:55:07;;;;;;;7.90;4.55;;;;;;;;;;2087012;28;20029;-65
2021/08/28 04:56:26;;;;;;;4.18;3.80;;;;;;;;;;2082884;28;20057;-65
2021/08/28 04:57:45;;;;;;;5.10;4.35;;;;;;;;;;2079598;28;20527;-65
2021/08/28 04:59:04;;;;;;;6.60;3.60;;;;;;;;;;2079480;28;20495;-65
2021/08/28 05:00:22;;;;;;;4.28;3.90;;;;;;;;;;2077855;28;20045;-65
2021/08/28 05:01:41;;;;;;;9.18;4.78;;;;;;;;;;2082940;28;20026;-65
2021/08/28 05:03:00;;;;;;;8.15;4.45;;;;;;;;;;2079208;28;20052;-65
2021/08/28 05:04:19;;;;;;;4.63;4.13;;;;;;;;;;2078963;28;20033;-65
2021/08/28 05:05:38;;;;;;;5.93;4.50;;;;;;;;;;2080026;28;20021;-65
2021/08/28 05:06:57;;;;;;;5.57;4.72;;;;;;;;;;2079109;28;20388;-65
2021/08/28 05:08:16;;;;;;;7.97;4.65;;;;;;;;;;2075807;28;20038;-65
2021/08/28 05:09:35;;;;;;;4.68;4.28;;;;;;;;;;2077360;28;20053;-65
2021/08/28 05:10:54;;;;;;;5.28;4.25;;;;;;;;;;2078354;28;20045;-65
2021/08/28 05:12:13;;;;;;;5.25;4.60;;;;;;;;;;2079469;28;20422;-65
2021/08/28 05:13:32;;;;;;;7.20;4.45;;;;;;;;;;2077873;28;20487;-66
2021/08/28 05:14:51;;;;;;;5.70;4.28;;;;;;;;;;2082946;28;20029;-65
2021/08/28 05:16:10;;;;;;;5.60;4.65;;;;;;;;;;2075030;28;20442;-65
2021/08/28 05:17:30;;;;;;;4.75;4.35;;;;;;;;;;2078017;28;20037;-65
2021/08/28 05:18:49;;;;;;;8.02;4.50;;;;;;;;;;2081351;28;20053;-65
2021/08/28 05:20:08;;;;;;;5.97;4.40;;;;;;;;;;2077756;28;20033;-65
2021/08/28 05:21:27;;;;;;;6.43;4.60;;;;;;;;;;2074614;28;20037;-65
2021/08/28 05:22:45;;;;;;;7.85;4.40;;;;;;;;;;2082246;28;20515;-64
2021/08/28 05:24:04;;;;;;;6.32;4.97;;;;;;;;;;2077193;28;20033;-65
2021/08/28 05:25:23;;;;;;;7.07;4.80;;;;;;;;;;2081282;28;20025;-65
2021/08/28 05:26:42;;;;;;;5.25;4.72;;;;;;;;;;2079239;28;20025;-65
2021/08/28 05:28:01;;;;;;;7.28;4.47;;;;;;;;;;2082048;28;20104;-65
2021/08/28 05:29:19;;;;;;;5.50;4.93;;;;;;;;;;2078303;28;20038;-65
2021/08/28 05:30:38;;;;;;;9.13;4.90;;;;;;;;;;2083622;28;20033;-66
2021/08/28 05:31:57;;;;;;;6.30;4.65;;;;;;;;;;2081909;28;20029;-65
2021/08/28 05:33:16;;;;;;;7.50;5.20;;;;;;;;;;2078933;28;20029;-65
2021/08/28 05:34:35;;;;;;;6.13;4.65;;;;;;;;;;2078896;28;20026;-65
2021/08/28 05:35:54;;;;;;;6.57;5.65;;;;;;;;;;2080894;28;20030;-65
2021/08/28 05:37:13;;;;;;;6.70;4.95;;;;;;;;;;2081427;28;20033;-65
2021/08/28 05:38:32;;;;;;;7.22;5.25;;;;;;;;;;2077293;28;20480;-66
2021/08/28 05:39:51;;;;;;;7.30;5.88;;;;;;;;;;2081049;28;20022;-65
2021/08/28 05:41:10;;;;;;;8.95;5.55;;;;;;;;;;2082084;28;20069;-65
2021/08/28 05:42:29;;;;;;;10.18;5.90;;;;;;;;;;2078289;28;20445;-66
2021/08/28 05:43:53;;;;;;;6.30;5.53;;;;;;;;;;2077542;28;20033;-68
2021/08/28 05:45:12;;;;;;;6.82;4.90;;;;;;;;;;2079833;28;20419;-66
2021/08/28 05:46:31;;;;;;;7.53;5.30;;;;;;;;;;2081742;28;20390;-67
2021/08/28 05:47:50;;;;;;;8.48;5.10;;;;;;;;;;2080985;28;20492;-66
2021/08/28 05:49:09;;;;;;;6.57;5.38;;;;;;;;;;2082596;28;20468;-66
2021/08/28 05:50:28;;;;;;;6.78;5.20;;;;;;;;;;2080297;28;20387;-66
2021/08/28 05:51:50;;;;;;;7.57;5.30;;;;;;;;;;2085692;28;20032;-66
2021/08/28 05:53:09;;;;;;;6.47;5.72;;;;;;;;;;2080951;28;20029;-65
2021/08/28 05:54:28;;;;;;;7.32;5.32;;;;;;;;;;2079950;28;20033;-65
2021/08/28 05:55:46;;;;;;;5.90;5.13;;;;;;;;;;2079688;28;20034;-65
2021/08/28 05:57:05;;;;;;;7.50;4.88;;;;;;;;;;2077765;28;20093;-65
2021/08/28 05:58:24;;;;;;;5.53;4.40;;;;;;;;;;2081440;28;20471;-65
2021/08/28 05:59:43;;;;;;;9.02;5.57;;;;;;;;;;2082601;28;20021;-66
2021/08/28 06:01:18;;;;;;;9.05;4.97;;;;;;;;;;2082768;28;20466;-66
2021/08/28 06:02:37;;;;;;;10.30;5.47;;;;;;;;;;2087250;28;20021;-66
2021/08/28 06:03:56;;;;;;;8.23;5.03;;;;;;;;;;2083815;28;20030;-66
2021/08/28 06:05:15;;;;;;;6.60;4.97;;;;;;;;;;2079696;28;20022;-66
2021/08/28 06:06:34;;;;;;;5.97;4.80;;;;;;;;;;2080873;28;20018;-66
2021/08/28 06:07:53;;;;;;;5.50;5.00;;;;;;;;;;2081526;28;20488;-66
2021/08/28 06:09:12;;;;;;;7.03;4.88;;;;;;;;;;2078172;28;20033;-66
2021/08/28 06:10:31;;;;;;;10.18;5.55;;;;;;;;;;2080145;28;20025;-66
2021/08/28 06:11:50;;;;;;;10.95;5.70;;;;;;;;;;2083464;28;20108;-66
2021/08/28 06:13:09;;;;;;;6.43;5.25;;;;;;;;;;2083896;28;20026;-66
2021/08/28 06:14:28;;;;;;;7.55;5.03;;;;;;;;;;2081962;28;20073;-66
2021/08/28 06:15:46;;;;;;;6.25;5.18;;;;;;;;;;2079232;28;20042;-66
2021/08/28 06:17:05;;;;;;;11.02;5.57;;;;;;;;;;2073797;28;20026;-66
2021/08/28 06:18:24;;;;;;;6.32;5.70;;;;;;;;;;2080626;28;20419;-66
2021/08/28 06:19:43;;;;;;;9.13;5.32;;;;;;;;;;2077841;28;20105;-66
2021/08/28 06:21:03;;;;;;;8.65;5.47;;;;;;;;;;2075928;28;20030;-66
2021/08/28 06:22:22;;;;;;;6.40;5.03;;;;;;;;;;2080828;28;20026;-66
2021/08/28 06:23:40;;;;;;;7.93;5.70;;;;;;;;;;2075190;28;20051;-66
2021/08/28 06:24:59;;;;;;;11.75;5.80;;;;;;;;;;2075019;28;20160;-66
2021/08/28 06:26:18;;;;;;;6.05;5.07;;;;;;;;;;2075015;28;20026;-66
2021/08/28 06:27:37;;;;;;;10.70;6.10;;;;;;;;;;2082073;28;20021;-66
2021/08/28 06:28:56;;;;;;;7.38;5.82;;;;;;;;;;2082206;28;20029;-66
2021/08/28 06:30:16;;;;;;;8.38;5.53;;;;;;;;;;2077416;28;20543;-67
2021/08/28 06:31:35;;;;;;;10.32;6.22;;;;;;;;;;2081469;28;20067;-67
2021/08/28 06:32:54;;;;;;;8.45;5.43;;;;;;;;;;2079840;28;20060;-66
2021/08/28 06:34:13;;;;;;;9.52;5.35;;;;;;;;;;2079025;28;20025;-67
2021/08/28 06:35:32;;;;;;;14.55;5.95;;;;;;;;;;2085440;28;20024;-66
2021/08/28 06:36:51;;;;;;;9.75;6.70;;;;;;;;;;2082599;28;20029;-66
2021/08/28 06:38:10;;;;;;;7.18;5.40;;;;;;;;;;2076190;28;20033;-66
2021/08/28 06:39:28;;;;;;;8.25;5.75;;;;;;;;;;2077014;28;20511;-67
2021/08/28 06:40:47;;;;;;;8.60;6.07;;;;;;;;;;2083918;28;20021;-66
2021/08/28 06:42:06;;;;;;;7.82;5.63;;;;;;;;;;2077851;28;20468;-66
2021/08/28 06:43:25;;;;;;;10.40;6.10;;;;;;;;;;2086263;28;20025;-67
2021/08/28 06:44:45;;;;;;;9.57;6.15;;;;;;;;;;2082266;28;20052;-66
2021/08/28 06:46:04;;;;;;;7.85;6.10;;;;;;;;;;2082204;28;20021;-66
2021/08/28 06:47:22;;;;;;;6.95;5.93;;;;;;;;;;2078262;28;20030;-66
2021/08/28 06:48:44;;;;;;;6.57;5.50;;;;;;;;;;2081234;28;20387;-66
2021/08/28 06:50:03;;;;;;;6.57;5.53;;;;;;;;;;2080406;28;20030;-67
2021/08/28 06:51:25;;;;;;;6.65;5.82;;;;;;;;;;2077085;28;20479;-69
2021/08/28 06:52:44;;;;;;;6.20;5.60;;;;;;;;;;2079541;28;20480;-67
2021/08/28 06:54:03;;;;;;;6.93;5.97;;;;;;;;;;2084650;28;20037;-67
2021/08/28 06:55:21;;;;;;;6.78;6.03;;;;;;;;;;2084145;28;20432;-67
2021/08/28 06:56:41;;;;;;;7.03;6.43;;;;;;;;;;2078721;28;20029;-67
2021/08/28 06:58:00;;;;;;;10.88;6.00;;;;;;;;;;2084650;28;20033;-67
2021/08/28 06:59:19;;;;;;;7.47;5.80;;;;;;;;;;2083348;28;20029;-68
2021/08/28 07:00:38;;;;;;;7.85;6.15;;;;;;;;;;2079366;28;20026;-67
2021/08/28 07:01:57;;;;;;;8.40;6.47;;;;;;;;;;2074755;28;20105;-68
2021/08/28 07:03:16;;;;;;;6.97;5.78;;;;;;;;;;2082729;28;20060;-67
2021/08/28 07:04:35;;;;;;;8.88;5.80;;;;;;;;;;2077583;28;20470;-67
2021/08/28 07:05:57;;;;;;;10.27;6.45;;;;;;;;;;2080920;28;20504;-67
2021/08/28 07:07:16;;;;;;;10.82;5.70;;;;;;;;;;2080959;28;20109;-69
2021/08/28 07:08:34;;;;;;;7.85;6.25;;;;;;;;;;2080544;28;20025;-68
2021/08/28 07:09:53;;;;;;;7.20;6.18;;;;;;;;;;2080879;28;20029;-68
2021/08/28 07:11:12;;;;;;;6.88;5.95;;;;;;;;;;2078553;28;20045;-68
2021/08/28 07:12:31;;;;;;;7.00;5.63;;;;;;;;;;2080419;28;20515;-68
2021/08/28 07:13:50;;;;;;;9.77;5.90;;;;;;;;;;2082469;28;20108;-67
2021/08/28 07:15:09;;;;;;;8.52;6.30;;;;;;;;;;2081648;28;20061;-68
2021/08/28 07:16:28;;;;;;;11.68;6.15;;;;;;;;;;2081222;28;20049;-68
2021/08/28 07:17:50;;;;;;;11.00;6.70;;;;;;;;;;2083042;28;20423;-68
2021/08/28 07:19:09;;;;;;;7.20;6.20;;;;;;;;;;2077096;28;20480;-68
2021/08/28 07:20:28;;;;;;;6.95;5.97;;;;;;;;;;2080158;28;20038;-67
2021/08/28 07:21:47;;;;;;;7.13;6.25;;;;;;;;;;2077882;28;20022;-67
2021/08/28 07:23:06;;;;;;;7.07;6.35;;;;;;;;;;2081658;28;20037;-68
2021/08/28 07:24:25;;;;;;;8.02;5.88;;;;;;;;;;2081225;28;20046;-67
2021/08/28 07:25:44;;;;;;;8.20;6.55;;;;;;;;;;2080672;28;20101;-68
2021/08/28 07:27:03;;;;;;;9.15;6.40;;;;;;;;;;2078381;28;20029;-68
2021/08/28 07:28:22;;;;;;;8.52;6.40;;;;;;;;;;2082248;28;20052;-67
2021/08/28 07:29:41;;;;;;;9.77;6.00;;;;;;;;;;2083812;28;20054;-68
2021/08/28 07:31:02;;;;;;;11.13;6.43;;;;;;;;;;2080520;28;20034;-68
2021/08/28 07:32:21;;;;;;;9.77;6.82;;;;;;;;;;2077311;28;20506;-67
2021/08/28 07:33:40;;;;;;;8.15;6.28;;;;;;;;;;2072491;28;20037;-67
2021/08/28 07:34:59;;;;;;;8.90;6.38;;;;;;;;;;2083349;28;20025;-68
2021/08/28 07:36:17;;;;;;;9.25;6.13;;;;;;;;;;2079723;28;20089;-68
2021/08/28 07:37:36;;;;;;;11.30;5.93;;;;;;;;;;2078659;28;20091;-68
2021/08/28 07:38:55;;;;;;;7.85;6.28;;;;;;;;;;2076762;28;20057;-67
2021/08/28 07:40:14;;;;;;;8.38;6.85;;;;;;;;;;2080641;28;20025;-67
2021/08/28 07:41:33;;;;;;;8.52;6.78;;;;;;;;;;2077622;28;20100;-67
2021/08/28 07:42:55;;;;;;;10.32;6.57;;;;;;;;;;2079949;28;20056;-67
2021/08/28 07:44:14;;;;;;;10.18;5.90;;;;;;;;;;2077730;28;20026;-67
2021/08/28 07:45:33;;;;;;;8.10;6.13;;;;;;;;;;2075414;28;20499;-67
2021/08/28 07:46:53;;;;;;;9.05;6.03;;;;;;;;;;2084727;28;20029;-67
2021/08/28 07:48:12;;;;;;;7.53;6.68;;;;;;;;;;2081631;28;20029;-67
2021/08/28 07:49:31;;;;;;;9.57;5.80;;;;;;;;;;2079709;28;20100;-67
2021/08/28 07:50:50;;;;;;;7.63;5.88;;;;;;;;;;2080071;28;20403;-62
2021/08/28 07:52:08;;;;;;;8.93;6.45;;;;;;;;;;2083605;28;20045;-62
2021/08/28 07:53:27;;;;;;;8.40;6.00;;;;;;;;;;2082117;28;20026;-63
2021/08/28 07:54:46;;;;;;;7.63;6.25;;;;;;;;;;2079043;28;20093;-68
2021/08/28 07:56:05;;;;;;;11.93;6.50;;;;;;;;;;2079642;28;20021;-69
2021/08/28 07:57:24;;;;;;;7.13;6.43;;;;;;;;;;2081501;28;20033;-69
2021/08/28 07:58:43;;;;;;;14.50;6.88;;;;;;;;;;2073290;28;20104;-69